createdAt,value
2019-05-23T00:02:31.136Z,99.90
2019-05-23T00:08:31.251Z,99.90
2019-05-23T00:11:31.150Z,99.90
2019-05-23T00:17:11.941Z,99.90
2019-05-23T00:19:53.022Z,99.90
2019-05-23T00:22:33.811Z,99.90
2019-05-23T00:25:15.994Z,99.90
2019-05-23T00:27:57.122Z,99.90
2019-05-23T00:30:56.639Z,99.90
2019-05-23T00:33:39.562Z,99.90
2019-05-23T00:36:21.074Z,99.90
2019-05-23T00:39:03.208Z,99.90
2019-05-23T00:41:44.719Z,99.90
2019-05-23T00:44:25.723Z,99.90
2019-05-23T00:47:07.507Z,99.90
2019-05-23T00:49:49.610Z,99.90
2019-05-23T00:52:30.247Z,99.90
2019-05-23T00:55:10.900Z,99.90
2019-05-23T00:57:51.602Z,99.90
2019-05-23T01:00:32.307Z,99.90
2019-05-23T01:03:14.423Z,99.90
2019-05-23T01:05:55.384Z,99.90
2019-05-23T01:08:36.098Z,99.90
2019-05-23T01:11:17.231Z,99.90
2019-05-23T01:13:59.395Z,99.90
2019-05-23T01:16:40.435Z,99.90
2019-05-23T01:19:21.147Z,99.90
2019-05-23T01:22:07.430Z,99.90
2019-05-23T01:24:51.479Z,99.90
2019-05-23T01:27:20.607Z,99.90
2019-05-23T01:29:51.542Z,99.90
2019-05-23T01:32:27.350Z,99.90
2019-05-23T01:34:56.743Z,99.90
2019-05-23T01:37:26.086Z,99.90
2019-05-23T01:39:55.434Z,99.90
2019-05-23T01:42:26.032Z,99.90
2019-05-23T01:44:54.926Z,99.90
2019-05-23T01:47:23.976Z,99.90
2019-05-23T01:49:53.323Z,99.90
2019-05-23T01:52:22.090Z,99.90
2019-05-23T01:54:50.663Z,99.90
2019-05-23T01:57:19.744Z,99.90
2019-05-23T02:00:06.144Z,99.90
2019-05-23T02:02:20.984Z,99.90
2019-05-23T02:04:50.712Z,99.90
2019-05-23T02:07:19.855Z,99.90
2019-05-23T02:09:48.563Z,99.90
2019-05-23T02:12:17.779Z,99.90
2019-05-23T02:14:46.396Z,99.90
2019-05-23T02:17:14.983Z,99.90
2019-05-23T02:19:43.668Z,99.90
2019-05-23T02:22:13.126Z,99.90
2019-05-23T02:24:42.103Z,99.90
2019-05-23T02:27:11.803Z,99.90
2019-05-23T02:29:41.811Z,99.90
2019-05-23T02:32:11.251Z,99.90
2019-05-23T02:34:40.515Z,99.90
2019-05-23T02:37:17.013Z,99.90
2019-05-23T02:39:58.441Z,99.90
2019-05-23T02:42:34.450Z,99.90
2019-05-23T02:45:05.043Z,99.90
2019-05-23T02:47:39.494Z,99.90
2019-05-23T02:50:10.605Z,99.90
2019-05-23T02:52:46.217Z,99.90
2019-05-23T02:55:21.921Z,99.90
2019-05-23T02:57:51.920Z,99.90
2019-05-23T03:00:55.201Z,99.90
2019-05-23T03:03:25.834Z,99.90
2019-05-23T03:05:56.580Z,99.90
2019-05-23T03:08:25.306Z,99.90
2019-05-23T03:11:04.607Z,99.90
2019-05-23T03:13:34.094Z,99.90
2019-05-23T03:16:04.331Z,99.90
2019-05-23T03:18:40.520Z,99.90
2019-05-23T03:21:09.642Z,99.90
2019-05-23T03:23:38.510Z,99.90
2019-05-23T03:26:46.627Z,99.90
2019-05-23T03:29:15.920Z,99.90
2019-05-23T03:31:48.764Z,99.90
2019-05-23T03:34:20.638Z,99.90
2019-05-23T03:36:50.309Z,99.90
2019-05-23T03:39:19.783Z,99.90
2019-05-23T03:41:48.979Z,99.90
2019-05-23T03:44:18.212Z,99.90
2019-05-23T03:46:49.292Z,99.90
2019-05-23T03:49:19.865Z,99.90
2019-05-23T03:51:48.768Z,99.90
2019-05-23T03:54:18.104Z,99.90
2019-05-23T03:56:47.243Z,99.90
2019-05-23T03:59:15.824Z,99.90
2019-05-23T04:01:48.837Z,99.90
2019-05-23T04:04:18.223Z,99.90
2019-05-23T04:06:48.032Z,99.90
2019-05-23T04:09:16.679Z,99.90
2019-05-23T04:11:45.443Z,99.90
2019-05-23T04:14:14.243Z,99.90
2019-05-23T04:16:43.150Z,99.90
2019-05-23T04:19:12.235Z,99.90
2019-05-23T04:21:40.827Z,99.90
2019-05-23T04:24:10.648Z,99.90
2019-05-23T04:26:40.041Z,99.90
2019-05-23T04:29:08.860Z,99.90
2019-05-23T04:31:37.420Z,99.90
2019-05-23T04:34:07.373Z,99.90
2019-05-23T04:36:36.259Z,99.90
2019-05-23T04:39:06.496Z,99.90
2019-05-23T04:41:35.275Z,99.90
2019-05-23T04:44:04.213Z,99.90
2019-05-23T04:46:33.057Z,99.90
2019-05-23T04:49:02.257Z,99.90
2019-05-23T04:51:30.839Z,99.90
2019-05-23T04:53:59.722Z,99.90
2019-05-23T04:56:28.579Z,99.90
2019-05-23T04:58:57.743Z,99.90
2019-05-23T05:01:27.189Z,99.90
2019-05-23T05:03:56.171Z,99.90
2019-05-23T05:06:25.832Z,99.90
2019-05-23T05:08:55.547Z,99.90
2019-05-23T05:11:24.280Z,99.90
2019-05-23T05:13:52.871Z,99.90
2019-05-23T05:16:21.790Z,99.90
2019-05-23T05:18:50.802Z,99.90
2019-05-23T05:21:19.357Z,99.90
2019-05-23T05:23:48.164Z,99.90
2019-05-23T05:26:21.768Z,99.90
2019-05-23T05:28:51.462Z,99.90
2019-05-23T05:31:20.485Z,99.90
2019-05-23T05:33:49.056Z,99.90
2019-05-23T05:36:17.918Z,99.90
2019-05-23T05:38:47.683Z,99.90
2019-05-23T05:41:16.319Z,99.90
2019-05-23T05:43:44.891Z,99.90
2019-05-23T05:46:13.798Z,99.90
2019-05-23T05:48:42.953Z,99.90
2019-05-23T05:51:12.139Z,99.90
2019-05-23T05:53:41.779Z,99.90
2019-05-23T05:56:11.105Z,99.90
2019-05-23T05:58:40.079Z,99.90
2019-05-23T06:01:11.047Z,99.90
2019-05-23T06:03:40.938Z,99.90
2019-05-23T06:06:17.820Z,99.90
2019-05-23T06:08:48.097Z,99.90
2019-05-23T06:11:16.810Z,99.90
2019-05-23T06:13:45.895Z,99.90
2019-05-23T06:16:14.595Z,99.90
2019-05-23T06:18:43.285Z,99.90
2019-05-23T06:21:13.935Z,99.90
2019-05-23T06:23:43.718Z,99.90
2019-05-23T06:26:12.682Z,99.90
2019-05-23T06:28:41.571Z,99.90
2019-05-23T06:31:11.256Z,99.90
2019-05-23T06:33:39.911Z,99.90
2019-05-23T06:36:09.263Z,99.90
2019-05-23T06:38:37.827Z,99.90
2019-05-23T06:41:07.867Z,99.90
2019-05-23T06:43:36.631Z,99.90
2019-05-23T06:46:05.502Z,99.90
2019-05-23T06:48:34.432Z,99.90
2019-05-23T06:51:03.031Z,99.90
2019-05-23T06:53:31.692Z,99.90
2019-05-23T06:56:00.244Z,99.90
2019-05-23T06:58:29.035Z,99.90
2019-05-23T07:00:57.625Z,99.90
2019-05-23T07:03:40.570Z,99.90
2019-05-23T07:05:57.066Z,99.90
2019-05-23T07:08:26.269Z,99.90
2019-05-23T07:10:55.038Z,99.90
2019-05-23T07:13:24.474Z,99.90
2019-05-23T07:15:53.120Z,99.90
2019-05-23T07:18:21.720Z,99.90
2019-05-23T07:20:50.282Z,99.90
2019-05-23T07:23:18.963Z,99.90
2019-05-23T07:25:47.672Z,99.90
2019-05-23T07:28:16.635Z,99.90
2019-05-23T07:34:13.255Z,99.90
2019-05-23T07:37:01.595Z,99.90
2019-05-23T07:39:49.683Z,99.90
2019-05-23T07:42:37.767Z,99.90
2019-05-23T07:48:38.707Z,99.90
2019-05-23T07:51:29.667Z,99.90
2019-05-23T07:54:35.771Z,99.90
2019-05-23T08:03:29.138Z,99.90
2019-05-23T08:06:17.163Z,99.90
2019-05-23T08:12:01.432Z,99.90
2019-05-23T08:14:49.278Z,99.90
2019-05-23T08:20:46.263Z,99.90
2019-05-23T08:23:34.123Z,99.90
2019-05-23T08:26:17.385Z,99.90
2019-05-23T08:29:24.039Z,99.90
2019-05-23T08:31:41.055Z,99.90
2019-05-23T08:34:40.077Z,99.90
2019-05-23T08:37:06.430Z,99.90
2019-05-23T08:39:47.074Z,99.90
2019-05-23T08:42:29.095Z,99.90
2019-05-23T08:45:10.458Z,99.90
2019-05-23T08:47:51.559Z,99.90
2019-05-23T08:50:32.564Z,99.90
2019-05-23T08:53:13.151Z,99.90
2019-05-23T08:55:54.704Z,99.90
2019-05-23T08:58:35.664Z,99.90
2019-05-23T09:01:17.072Z,99.90
2019-05-23T09:03:57.709Z,99.90
2019-05-23T09:06:38.388Z,99.90
2019-05-23T09:09:29.297Z,99.90
2019-05-23T09:14:50.673Z,99.90
2019-05-23T09:20:14.280Z,99.90
2019-05-23T09:28:30.482Z,99.90
2019-05-23T09:31:14.720Z,99.90
2019-05-23T09:53:18.999Z,99.90
2019-05-23T09:55:59.610Z,99.90
2019-05-23T09:58:40.610Z,99.90
2019-05-23T10:01:21.820Z,99.90
2019-05-23T10:04:03.146Z,99.90
2019-05-23T10:06:46.313Z,99.90
2019-05-23T10:09:26.235Z,99.90
2019-05-23T10:12:06.884Z,99.90
2019-05-23T10:14:48.244Z,99.90
2019-05-23T10:17:29.217Z,99.90
2019-05-23T10:20:09.860Z,99.90
2019-05-23T10:22:50.329Z,99.90
2019-05-23T10:25:30.903Z,99.90
2019-05-23T10:28:12.206Z,99.90
2019-05-23T10:30:52.715Z,99.90
2019-05-23T10:33:33.277Z,99.90
2019-05-23T10:36:14.347Z,99.90
2019-05-23T10:38:54.591Z,99.90
2019-05-23T10:41:34.908Z,99.90
2019-05-23T10:44:15.729Z,99.90
2019-05-23T10:46:56.053Z,99.90
2019-05-23T10:49:36.881Z,99.90
2019-05-23T10:52:18.067Z,99.90
2019-05-23T10:54:58.870Z,99.90
2019-05-23T10:57:39.427Z,99.90
2019-05-23T11:00:21.812Z,99.90
2019-05-23T11:03:02.777Z,99.90
2019-05-23T11:05:43.280Z,99.90
2019-05-23T11:08:28.249Z,99.90
2019-05-23T11:11:07.289Z,99.90
2019-05-23T11:13:48.633Z,99.90
2019-05-23T11:16:29.144Z,99.90
2019-05-23T11:19:09.936Z,99.90
2019-05-23T11:21:50.471Z,99.40
2019-05-23T11:24:31.073Z,99.70
2019-05-23T11:27:12.084Z,99.10
2019-05-23T11:29:53.247Z,99.20
2019-05-23T11:32:33.553Z,99.90
2019-05-23T11:35:14.048Z,98.70
2019-05-23T11:37:55.059Z,96.60
2019-05-23T11:40:35.706Z,97.10
2019-05-23T11:43:16.581Z,96.00
2019-05-23T11:48:39.971Z,94.20
2019-05-23T11:51:25.243Z,94.30
2019-05-23T11:54:08.490Z,95.50
2019-05-23T11:56:46.927Z,94.00
2019-05-23T11:59:27.395Z,92.60
2019-05-23T12:02:27.540Z,91.70
2019-05-23T12:05:17.140Z,91.60
2019-05-23T12:07:58.685Z,89.00
2019-05-23T12:10:39.643Z,84.70
2019-05-23T12:13:20.437Z,89.30
2019-05-23T12:16:01.339Z,90.10
2019-05-23T12:18:42.352Z,89.90
2019-05-23T12:21:23.369Z,83.50
2019-05-23T12:24:04.379Z,79.80
2019-05-23T12:26:45.576Z,84.10
2019-05-23T12:29:26.184Z,81.40
2019-05-23T12:32:07.966Z,83.70
2019-05-23T12:35:08.711Z,78.60
2019-05-23T12:37:31.033Z,74.00
2019-05-23T12:40:12.408Z,71.30
2019-05-23T12:42:53.124Z,70.90
2019-05-23T12:45:33.805Z,72.00
2019-05-23T12:51:25.429Z,68.60
2019-05-23T12:54:06.511Z,71.00
2019-05-23T12:56:49.205Z,69.90
2019-05-23T13:02:16.806Z,68.10
2019-05-23T13:07:46.943Z,68.20
2019-05-23T13:10:27.415Z,67.00
2019-05-23T13:15:53.783Z,65.00
2019-05-23T13:35:02.636Z,61.90
2019-05-23T13:37:32.285Z,64.80
2019-05-23T13:40:01.153Z,63.10
2019-05-23T13:42:29.711Z,62.80
2019-05-23T13:44:58.646Z,65.50
2019-05-23T13:47:27.550Z,63.80
2019-05-23T13:49:56.520Z,65.50
2019-05-23T13:52:25.409Z,60.90
2019-05-23T13:54:53.958Z,61.40
2019-05-23T13:57:22.630Z,62.80
2019-05-23T13:59:51.222Z,61.60
2019-05-23T14:02:20.427Z,65.00
2019-05-23T14:04:49.474Z,65.00
2019-05-23T14:07:18.772Z,59.80
2019-05-23T14:09:47.812Z,60.30
2019-05-23T14:12:21.631Z,60.70
2019-05-23T14:14:47.995Z,59.10
2019-05-23T14:17:24.821Z,64.00
2019-05-23T14:19:54.065Z,63.10
2019-05-23T14:22:23.161Z,63.90
2019-05-23T14:24:51.754Z,62.90
2019-05-23T14:27:27.768Z,63.20
2019-05-23T14:29:56.394Z,63.30
2019-05-23T14:32:35.985Z,61.90
2019-05-23T14:35:04.954Z,60.70
2019-05-23T14:37:39.259Z,63.00
2019-05-23T14:40:10.610Z,64.00
2019-05-23T14:42:45.904Z,61.60
2019-05-23T14:45:32.470Z,60.70
2019-05-23T14:48:14.858Z,61.80
2019-05-23T14:50:58.371Z,62.60
2019-05-23T14:53:32.591Z,61.00
2019-05-23T14:56:01.147Z,60.90
2019-05-23T14:58:29.943Z,60.90
2019-05-23T15:00:58.796Z,61.40
2019-05-23T15:03:27.927Z,61.60
2019-05-23T15:05:56.784Z,60.80
2019-05-23T15:08:25.727Z,61.40
2019-05-23T15:10:54.627Z,62.90
2019-05-23T15:13:23.189Z,59.60
2019-05-23T15:15:51.771Z,59.50
2019-05-23T15:18:20.596Z,62.10
2019-05-23T15:20:49.778Z,59.90
2019-05-23T15:23:18.675Z,60.10
2019-05-23T15:25:47.780Z,59.00
2019-05-23T15:28:16.310Z,59.60
2019-05-23T15:30:45.345Z,59.70
2019-05-23T15:33:14.215Z,59.70
2019-05-23T15:35:43.208Z,62.10
2019-05-23T15:38:11.793Z,59.30
2019-05-23T15:40:40.562Z,62.00
2019-05-23T15:43:10.142Z,59.90
2019-05-23T15:45:39.074Z,59.40
2019-05-23T15:48:07.890Z,64.20
2019-05-23T15:50:50.433Z,64.00
2019-05-23T15:53:28.154Z,60.90
2019-05-23T15:56:16.503Z,61.30
2019-05-23T15:58:49.037Z,60.70
2019-05-23T16:01:36.699Z,60.70
2019-05-23T16:04:14.071Z,60.90
2019-05-23T16:06:43.279Z,62.90
2019-05-23T16:09:27.551Z,63.20
2019-05-23T16:11:43.439Z,64.40
2019-05-23T16:14:12.956Z,65.10
2019-05-23T16:16:41.712Z,66.20
2019-05-23T16:19:10.671Z,66.40
2019-05-23T16:21:40.707Z,65.50
2019-05-23T16:24:10.004Z,64.20
2019-05-23T16:26:39.406Z,62.60
2019-05-23T16:29:09.412Z,67.80
2019-05-23T16:31:38.604Z,65.50
2019-05-23T16:34:07.275Z,64.50
2019-05-23T16:36:37.084Z,63.50
2019-05-23T16:39:07.740Z,65.00
2019-05-23T16:41:36.309Z,64.20
2019-05-23T16:44:05.529Z,64.90
2019-05-23T16:46:34.079Z,65.40
2019-05-23T16:49:02.984Z,64.50
2019-05-23T16:51:32.016Z,63.80
2019-05-23T16:54:05.003Z,64.40
2019-05-23T16:56:52.811Z,67.00
2019-05-23T16:59:38.855Z,68.20
2019-05-23T17:02:14.419Z,69.30
2019-05-23T17:05:08.398Z,71.10
2019-05-23T17:07:36.195Z,72.60
2019-05-23T17:10:19.355Z,74.30
2019-05-23T17:13:07.088Z,74.30
2019-05-23T17:15:43.487Z,69.80
2019-05-23T17:18:31.771Z,72.40
2019-05-23T17:21:06.903Z,71.00
2019-05-23T17:23:55.998Z,72.50
2019-05-23T17:26:33.687Z,75.20
2019-05-23T17:29:03.711Z,74.60
2019-05-23T17:31:35.135Z,73.50
2019-05-23T17:34:03.971Z,76.80
2019-05-23T17:36:32.644Z,77.80
2019-05-23T17:39:01.363Z,75.60
2019-05-23T17:41:30.803Z,76.20
2019-05-23T17:43:59.696Z,73.40
2019-05-23T17:46:28.520Z,77.20
2019-05-23T17:48:57.147Z,76.00
2019-05-23T17:51:25.735Z,77.10
2019-05-23T17:53:54.951Z,78.40
2019-05-23T17:56:23.953Z,78.60
2019-05-23T17:58:52.796Z,79.20
2019-05-23T18:01:21.866Z,77.80
2019-05-23T18:03:50.818Z,80.70
2019-05-23T18:06:19.844Z,78.20
2019-05-23T18:08:49.419Z,81.00
2019-05-23T18:11:18.299Z,81.50
2019-05-23T18:13:47.254Z,82.40
2019-05-23T18:16:16.143Z,79.80
2019-05-23T18:18:44.758Z,82.10
2019-05-23T18:21:13.710Z,82.70
2019-05-23T18:23:42.436Z,85.00
2019-05-23T18:26:11.405Z,85.90
2019-05-23T18:28:40.538Z,85.30
2019-05-23T18:31:16.197Z,84.30
2019-05-23T18:33:45.807Z,84.60
2019-05-23T18:36:15.330Z,86.60
2019-05-23T18:38:44.272Z,86.70
2019-05-23T18:41:13.368Z,86.70
2019-05-23T18:43:43.119Z,88.40
2019-05-23T18:46:23.031Z,89.30
2019-05-23T18:48:51.611Z,89.80
2019-05-23T18:51:20.215Z,90.10
2019-05-23T18:53:48.787Z,90.10
2019-05-23T18:56:17.385Z,90.20
2019-05-23T18:58:45.952Z,90.50
2019-05-23T19:01:18.469Z,90.80
2019-05-23T19:03:47.051Z,90.70
2019-05-23T19:06:16.258Z,91.30
2019-05-23T19:08:44.894Z,91.80
2019-05-23T19:11:20.773Z,92.20
2019-05-23T19:13:44.479Z,92.00
2019-05-23T19:16:13.189Z,92.40
2019-05-23T19:18:41.817Z,92.70
2019-05-23T19:21:11.676Z,92.10
2019-05-23T19:23:40.563Z,92.10
2019-05-23T19:26:09.824Z,93.20
2019-05-23T19:28:39.540Z,94.20
2019-05-23T19:31:08.094Z,94.90
2019-05-23T19:45:47.396Z,98.70
2019-05-23T19:54:19.527Z,99.90
2019-05-23T19:57:07.527Z,99.90
2019-05-23T19:59:55.673Z,99.90
2019-05-23T20:05:42.100Z,99.90
2019-05-23T20:08:30.535Z,99.90
2019-05-23T20:11:18.386Z,99.90
2019-05-23T20:14:06.236Z,99.90
2019-05-23T20:16:54.086Z,99.90
2019-05-23T20:19:41.923Z,99.90
2019-05-23T20:22:29.779Z,99.90
2019-05-23T20:25:18.351Z,99.90
2019-05-23T20:27:59.180Z,99.90
2019-05-23T20:30:39.983Z,99.90
2019-05-23T20:33:21.658Z,99.90
2019-05-23T20:38:45.101Z,99.90
2019-05-23T20:41:26.481Z,99.90
2019-05-23T20:44:07.696Z,99.90
2019-05-23T20:46:48.256Z,99.90
2019-05-23T20:49:29.037Z,99.90
2019-05-23T20:52:09.603Z,99.90
2019-05-23T20:54:50.144Z,99.90
2019-05-23T20:57:30.708Z,99.90
2019-05-23T21:00:12.935Z,99.90
2019-05-23T21:02:54.220Z,99.90
2019-05-23T21:08:20.813Z,99.90
2019-05-23T21:13:47.464Z,99.90
2019-05-23T21:19:17.668Z,99.90
2019-05-23T21:24:40.551Z,99.90
2019-05-23T21:55:19.226Z,99.90
2019-05-23T22:03:52.348Z,99.90
2019-05-23T22:06:34.807Z,99.90
2019-05-23T22:09:14.346Z,99.90
2019-05-23T22:15:32.046Z,99.90
2019-05-23T22:21:28.563Z,99.90
2019-05-23T22:27:17.888Z,99.90
2019-05-23T22:29:58.861Z,99.90
2019-05-23T22:32:39.506Z,99.90
2019-05-23T22:35:20.633Z,99.90
2019-05-23T22:38:01.414Z,99.90
2019-05-23T22:40:41.650Z,99.90
2019-05-23T22:43:23.122Z,99.90
2019-05-23T22:46:03.584Z,99.90
2019-05-23T22:48:44.281Z,99.90
2019-05-23T22:51:25.183Z,99.90
2019-05-23T22:54:06.095Z,99.90
2019-05-23T22:56:46.474Z,99.90
2019-05-23T22:59:27.052Z,99.90
2019-05-23T23:02:11.838Z,99.90
2019-05-23T23:04:52.635Z,99.90
2019-05-23T23:07:33.941Z,99.90
2019-05-23T23:10:14.660Z,99.90
2019-05-23T23:12:53.855Z,99.90
2019-05-23T23:15:41.713Z,99.90
2019-05-23T23:18:29.796Z,99.90
2019-05-23T23:21:17.651Z,99.90
2019-05-23T23:24:05.496Z,99.90
2019-05-23T23:26:46.370Z,99.90
2019-05-23T23:29:26.951Z,99.90
2019-05-23T23:32:08.353Z,99.90
2019-05-23T23:34:49.135Z,99.90
2019-05-23T23:37:29.835Z,99.90
2019-05-23T23:40:10.370Z,99.90
2019-05-23T23:42:55.411Z,99.90
2019-05-23T23:48:38.363Z,99.90
2019-05-23T23:54:47.316Z,99.90
2019-05-23T23:57:47.487Z,99.90
